createdAt,value
2018-01-27T00:00:56.507Z,7.40
2018-01-27T00:03:24.410Z,7.50
2018-01-27T00:05:52.821Z,7.40
2018-01-27T00:08:21.064Z,7.40
2018-01-27T00:10:48.934Z,7.40
2018-01-27T00:13:16.559Z,7.40
2018-01-27T00:15:45.110Z,7.50
2018-01-27T00:18:12.671Z,7.40
2018-01-27T00:20:39.616Z,7.30
2018-01-27T00:23:06.542Z,7.30
2018-01-27T00:25:33.409Z,7.30
2018-01-27T00:28:00.242Z,7.20
2018-01-27T00:30:28.759Z,7.30
2018-01-27T00:32:58.093Z,7.40
2018-01-27T00:35:27.291Z,7.40
2018-01-27T00:37:55.048Z,7.30
2018-01-27T00:40:24.528Z,7.30
2018-01-27T00:42:53.701Z,7.20
2018-01-27T00:45:22.552Z,7.10
2018-01-27T00:47:51.854Z,6.90
2018-01-27T00:50:20.716Z,6.70
2018-01-27T00:52:50.837Z,6.60
2018-01-27T00:55:19.379Z,6.60
2018-01-27T00:57:48.216Z,6.60
2018-01-27T01:00:17.533Z,6.60
2018-01-27T01:02:46.848Z,6.60
2018-01-27T01:05:15.815Z,6.50
2018-01-27T01:07:45.308Z,6.50
2018-01-27T01:10:13.931Z,6.50
2018-01-27T01:12:42.832Z,6.50
2018-01-27T01:15:11.519Z,6.50
2018-01-27T01:17:40.290Z,6.50
2018-01-27T01:20:09.724Z,6.50
2018-01-27T01:22:38.139Z,6.60
2018-01-27T01:25:06.790Z,6.60
2018-01-27T01:27:36.086Z,6.60
2018-01-27T01:30:11.370Z,6.60
2018-01-27T01:32:41.199Z,6.60
2018-01-27T01:35:09.739Z,6.60
2018-01-27T01:37:37.990Z,6.70
2018-01-27T01:40:06.769Z,6.70
2018-01-27T01:42:40.710Z,6.70
2018-01-27T01:45:08.971Z,6.60
2018-01-27T01:47:37.543Z,6.60
2018-01-27T01:50:05.928Z,6.60
2018-01-27T01:52:33.903Z,6.60
2018-01-27T01:55:01.990Z,6.70
2018-01-27T01:57:29.053Z,6.70
2018-01-27T01:59:56.381Z,6.60
2018-01-27T02:02:24.473Z,6.50
2018-01-27T02:04:51.642Z,6.50
2018-01-27T02:07:18.912Z,6.50
2018-01-27T02:09:46.282Z,6.40
2018-01-27T02:12:13.455Z,6.30
2018-01-27T02:14:41.149Z,6.30
2018-01-27T02:17:08.356Z,6.30
2018-01-27T02:19:35.347Z,6.30
2018-01-27T02:22:02.333Z,6.20
2018-01-27T02:24:30.073Z,6.20
2018-01-27T02:26:57.557Z,6.20
2018-01-27T02:29:25.544Z,6.20
2018-01-27T02:31:53.167Z,6.00
2018-01-27T02:34:20.874Z,6.00
2018-01-27T02:36:48.917Z,6.10
2018-01-27T02:39:15.978Z,6.20
2018-01-27T02:41:42.903Z,6.30
2018-01-27T02:44:11.142Z,6.40
2018-01-27T02:46:39.942Z,6.50
2018-01-27T02:49:06.818Z,6.50
2018-01-27T02:51:36.374Z,6.60
2018-01-27T02:54:06.015Z,6.50
2018-01-27T02:56:35.949Z,6.20
2018-01-27T02:59:05.326Z,6.10
2018-01-27T03:01:35.396Z,6.00
2018-01-27T03:04:04.913Z,6.00
2018-01-27T03:06:36.210Z,6.00
2018-01-27T03:09:06.555Z,6.10
2018-01-27T03:11:34.065Z,6.30
2018-01-27T03:14:01.427Z,6.40
2018-01-27T03:16:29.498Z,6.40
2018-01-27T03:18:57.712Z,6.40
2018-01-27T03:21:25.363Z,6.40
2018-01-27T03:23:52.214Z,6.30
2018-01-27T03:26:19.151Z,6.30
2018-01-27T03:28:46.255Z,6.30
2018-01-27T03:31:13.877Z,6.30
2018-01-27T03:33:41.606Z,6.30
2018-01-27T03:36:09.263Z,6.50
2018-01-27T03:38:36.926Z,6.50
2018-01-27T03:41:05.094Z,6.50
2018-01-27T03:43:32.765Z,6.40
2018-01-27T03:46:00.503Z,6.40
2018-01-27T03:48:27.985Z,6.40
2018-01-27T03:50:55.627Z,6.30
2018-01-27T03:53:23.167Z,6.30
2018-01-27T03:55:50.774Z,6.40
2018-01-27T03:58:18.384Z,6.30
2018-01-27T04:00:45.354Z,6.20
2018-01-27T04:03:12.208Z,6.30
2018-01-27T04:05:39.074Z,6.30
2018-01-27T04:08:06.724Z,6.20
2018-01-27T04:10:33.651Z,6.20
2018-01-27T04:13:00.518Z,6.10
2018-01-27T04:15:27.539Z,5.90
2018-01-27T04:17:54.418Z,5.80
2018-01-27T04:20:22.095Z,5.80
2018-01-27T04:22:49.696Z,5.50
2018-01-27T04:25:16.616Z,5.40
2018-01-27T04:27:43.490Z,5.60
2018-01-27T04:30:10.446Z,5.40
2018-01-27T04:32:37.304Z,5.40
2018-01-27T04:35:04.175Z,5.30
2018-01-27T04:37:31.911Z,5.00
2018-01-27T04:39:58.832Z,5.00
2018-01-27T04:42:25.732Z,5.20
2018-01-27T04:44:53.452Z,5.30
2018-01-27T04:47:20.311Z,5.20
2018-01-27T04:49:47.242Z,5.10
2018-01-27T04:52:14.098Z,5.00
2018-01-27T04:54:41.036Z,4.90
2018-01-27T04:57:07.906Z,4.80
2018-01-27T04:59:35.576Z,4.70
2018-01-27T05:02:03.343Z,4.50
2018-01-27T05:04:30.250Z,4.50
2018-01-27T05:06:57.180Z,4.30
2018-01-27T05:09:24.084Z,4.10
2018-01-27T05:11:51.722Z,3.60
2018-01-27T05:14:18.580Z,3.60
2018-01-27T05:16:45.663Z,3.40
2018-01-27T05:19:12.520Z,3.10
2018-01-27T05:21:39.490Z,3.10
2018-01-27T05:24:06.911Z,3.10
2018-01-27T05:26:33.905Z,3.00
2018-01-27T05:29:00.847Z,2.90
2018-01-27T05:31:27.712Z,2.90
2018-01-27T05:33:54.631Z,3.10
2018-01-27T05:36:21.578Z,3.00
2018-01-27T05:38:48.509Z,2.90
2018-01-27T05:41:15.378Z,3.00
2018-01-27T05:43:42.312Z,2.90
2018-01-27T05:46:09.302Z,2.80
2018-01-27T05:48:36.143Z,2.90
2018-01-27T05:51:03.093Z,2.90
2018-01-27T05:53:30.005Z,2.70
2018-01-27T05:55:56.983Z,2.80
2018-01-27T05:58:24.051Z,2.70
2018-01-27T06:00:51.652Z,2.80
2018-01-27T06:03:18.530Z,2.80
2018-01-27T06:05:45.447Z,2.90
2018-01-27T06:08:12.406Z,3.00
2018-01-27T06:10:39.307Z,3.00
2018-01-27T06:13:06.252Z,2.90
2018-01-27T06:15:33.131Z,2.90
2018-01-27T06:18:00.053Z,2.90
2018-01-27T06:20:27.004Z,3.10
2018-01-27T06:22:53.846Z,3.00
2018-01-27T06:25:20.724Z,3.00
2018-01-27T06:27:53.475Z,3.00
2018-01-27T06:30:20.701Z,3.00
2018-01-27T06:32:48.363Z,3.20
2018-01-27T06:35:16.027Z,3.20
2018-01-27T06:37:44.073Z,3.20
2018-01-27T06:40:10.997Z,3.20
2018-01-27T06:42:37.859Z,3.10
2018-01-27T06:45:04.778Z,3.00
2018-01-27T06:47:31.634Z,3.10
2018-01-27T06:49:58.582Z,3.10
2018-01-27T06:52:25.456Z,3.20
2018-01-27T06:54:53.108Z,3.00
2018-01-27T06:57:20.103Z,3.00
2018-01-27T06:59:46.950Z,3.00
2018-01-27T07:02:13.924Z,2.90
2018-01-27T07:04:46.177Z,3.20
2018-01-27T07:07:23.422Z,3.20
2018-01-27T07:10:02.047Z,3.30
2018-01-27T07:12:35.103Z,3.60
2018-01-27T07:15:13.378Z,3.80
2018-01-27T07:17:53.820Z,3.80
2018-01-27T07:20:32.041Z,3.80
2018-01-27T07:23:08.243Z,3.80
2018-01-27T07:25:44.525Z,4.10
2018-01-27T07:28:20.437Z,4.30
2018-01-27T07:30:56.817Z,4.30
2018-01-27T07:33:33.580Z,4.40
2018-01-27T07:36:09.571Z,4.40
2018-01-27T07:38:45.212Z,4.50
2018-01-27T07:41:20.967Z,4.40
2018-01-27T07:43:56.977Z,4.30
2018-01-27T07:46:32.917Z,4.20
2018-01-27T07:49:13.648Z,4.30
2018-01-27T07:51:52.414Z,4.40
2018-01-27T07:54:33.680Z,4.50
2018-01-27T07:57:10.358Z,4.40
2018-01-27T07:59:44.811Z,4.40
2018-01-27T08:02:14.179Z,4.60
2018-01-27T08:04:54.702Z,4.60
2018-01-27T08:07:35.105Z,4.50
2018-01-27T08:10:17.272Z,4.30
2018-01-27T08:12:53.501Z,4.30
2018-01-27T08:15:34.530Z,4.30
2018-01-27T08:18:14.391Z,4.10
2018-01-27T08:20:52.375Z,4.30
2018-01-27T08:23:29.849Z,4.20
2018-01-27T08:26:08.723Z,4.20
2018-01-27T08:28:45.216Z,4.40
2018-01-27T08:31:25.766Z,4.30
2018-01-27T08:34:00.454Z,4.60
2018-01-27T08:36:37.950Z,4.90
2018-01-27T08:39:10.264Z,5.10
2018-01-27T08:41:51.049Z,5.00
2018-01-27T08:44:36.034Z,5.10
2018-01-27T08:58:40.441Z,5.60
2018-01-27T09:07:03.158Z,5.60
2018-01-27T09:12:43.495Z,6.10
2018-01-27T09:21:13.883Z,5.90
2018-01-27T09:29:32.162Z,6.10
2018-01-27T09:35:07.931Z,6.40
2018-01-27T09:40:44.890Z,5.90
2018-01-27T09:43:22.888Z,5.90
2018-01-27T09:46:02.398Z,5.80
2018-01-27T09:48:42.930Z,5.90
2018-01-27T09:51:23.299Z,6.10
2018-01-27T09:54:02.490Z,6.30
2018-01-27T09:56:38.879Z,6.50
2018-01-27T09:59:16.494Z,6.50
2018-01-27T10:01:55.372Z,6.50
2018-01-27T10:04:36.383Z,6.10
2018-01-27T10:07:19.230Z,6.50
2018-01-27T10:09:55.566Z,6.60
2018-01-27T10:12:34.402Z,6.80
2018-01-27T10:15:15.110Z,6.60
2018-01-27T10:17:56.770Z,6.90
2018-01-27T10:20:32.232Z,7.00
2018-01-27T10:23:11.758Z,7.00
2018-01-27T10:25:51.225Z,7.00
2018-01-27T10:28:34.757Z,6.80
2018-01-27T10:31:14.098Z,6.90
2018-01-27T10:33:52.343Z,6.80
2018-01-27T10:36:33.410Z,6.80
2018-01-27T10:39:14.791Z,6.60
2018-01-27T10:41:51.726Z,6.60
2018-01-27T10:44:29.189Z,6.60
2018-01-27T10:47:06.948Z,7.00
2018-01-27T10:49:48.132Z,6.90
2018-01-27T10:52:27.942Z,7.20
2018-01-27T10:55:08.876Z,7.10
2018-01-27T10:57:49.350Z,7.10
2018-01-27T11:00:26.627Z,7.10
2018-01-27T11:03:08.731Z,7.30
2018-01-27T11:05:48.715Z,7.30
2018-01-27T11:08:24.486Z,7.20
2018-01-27T11:11:01.777Z,7.00
2018-01-27T11:13:40.177Z,7.30
2018-01-27T11:16:19.029Z,7.10
2018-01-27T11:18:54.018Z,6.90
2018-01-27T11:21:31.713Z,7.20
2018-01-27T11:24:06.897Z,7.50
2018-01-27T11:26:49.174Z,7.00
2018-01-27T11:29:27.750Z,7.20
2018-01-27T11:32:06.866Z,7.30
2018-01-27T11:34:43.007Z,7.30
2018-01-27T11:37:21.065Z,7.10
2018-01-27T11:39:59.477Z,7.40
2018-01-27T11:42:38.215Z,7.40
2018-01-27T11:45:17.123Z,7.30
2018-01-27T11:47:57.786Z,7.10
2018-01-27T11:50:41.167Z,7.50
2018-01-27T11:53:22.669Z,7.50
2018-01-27T11:56:02.084Z,7.00
2018-01-27T11:58:38.718Z,6.10
2018-01-27T12:01:14.950Z,6.30
2018-01-27T12:03:55.147Z,6.20
2018-01-27T12:06:30.775Z,6.50
2018-01-27T12:09:12.275Z,6.70
2018-01-27T12:11:47.243Z,6.60
2018-01-27T12:14:28.182Z,6.60
2018-01-27T12:17:05.088Z,6.50
2018-01-27T12:19:43.636Z,6.60
2018-01-27T12:22:16.449Z,6.70
2018-01-27T12:24:54.858Z,6.30
2018-01-27T12:27:38.248Z,6.60
2018-01-27T12:30:19.977Z,6.80
2018-01-27T12:32:50.465Z,6.80
2018-01-27T12:35:30.765Z,7.30
2018-01-27T12:38:11.716Z,7.30
2018-01-27T12:40:52.999Z,7.50
2018-01-27T12:43:34.848Z,7.50
2018-01-27T12:46:14.560Z,7.70
2018-01-27T12:48:54.605Z,7.80
2018-01-27T12:51:36.088Z,7.80
2018-01-27T12:54:17.017Z,7.70
2018-01-27T12:56:55.308Z,7.80
2018-01-27T12:59:32.663Z,7.90
2018-01-27T13:02:13.426Z,7.90
2018-01-27T13:04:54.427Z,7.70
2018-01-27T13:07:35.667Z,7.70
2018-01-27T13:10:10.451Z,7.70
2018-01-27T13:12:45.094Z,7.70
2018-01-27T13:15:22.318Z,7.70
2018-01-27T13:18:03.058Z,7.90
2018-01-27T13:20:40.598Z,7.80
2018-01-27T13:23:20.775Z,7.70
2018-01-27T13:25:57.180Z,7.80
2018-01-27T13:28:37.724Z,7.70
2018-01-27T13:31:18.504Z,7.80
2018-01-27T13:34:02.893Z,7.80
2018-01-27T13:36:39.207Z,7.80
2018-01-27T13:39:21.495Z,7.70
2018-01-27T13:41:59.650Z,7.50
2018-01-27T13:44:33.160Z,7.50
2018-01-27T13:47:11.351Z,7.40
2018-01-27T13:49:51.642Z,7.50
2018-01-27T13:52:31.376Z,7.50
2018-01-27T13:55:07.963Z,7.50
2018-01-27T13:57:47.713Z,7.40
2018-01-27T14:00:25.609Z,7.40
2018-01-27T14:03:03.538Z,7.30
2018-01-27T14:05:45.715Z,7.10
2018-01-27T14:08:24.985Z,7.10
2018-01-27T14:11:00.963Z,7.10
2018-01-27T14:13:41.470Z,7.10
2018-01-27T14:16:22.470Z,7.20
2018-01-27T14:19:01.012Z,7.20
2018-01-27T14:21:42.459Z,7.00
2018-01-27T14:24:23.633Z,7.10
2018-01-27T14:27:02.914Z,7.10
2018-01-27T14:29:40.171Z,7.10
2018-01-27T14:32:19.593Z,7.00
2018-01-27T14:34:57.141Z,7.10
2018-01-27T14:37:32.944Z,7.10
2018-01-27T14:40:11.979Z,7.20
2018-01-27T14:42:51.302Z,7.30
2018-01-27T14:45:29.874Z,7.30
2018-01-27T14:48:06.052Z,7.20
2018-01-27T14:50:43.756Z,7.20
2018-01-27T14:53:17.098Z,7.20
2018-01-27T14:55:51.124Z,7.10
2018-01-27T14:58:31.261Z,7.10
2018-01-27T15:01:11.670Z,7.20
2018-01-27T15:03:50.180Z,7.30
2018-01-27T15:06:24.218Z,7.30
2018-01-27T15:08:59.800Z,7.40
2018-01-27T15:11:37.077Z,7.00
2018-01-27T15:14:14.868Z,7.20
2018-01-27T15:16:53.862Z,7.10
2018-01-27T15:19:32.362Z,7.20
2018-01-27T15:22:10.244Z,7.40
2018-01-27T15:24:47.748Z,7.30
2018-01-27T15:27:27.982Z,7.40
2018-01-27T15:30:08.988Z,7.30
2018-01-27T15:32:48.726Z,7.40
2018-01-27T15:35:28.252Z,7.30
2018-01-27T15:38:04.632Z,7.20
2018-01-27T15:40:39.634Z,7.20
2018-01-27T15:43:17.254Z,7.20
2018-01-27T15:45:51.807Z,7.20
2018-01-27T15:48:31.183Z,7.20
2018-01-27T15:51:04.942Z,7.10
2018-01-27T15:53:40.059Z,7.10
2018-01-27T15:56:14.838Z,7.10
2018-01-27T15:58:51.545Z,7.10
2018-01-27T16:01:25.609Z,7.10
2018-01-27T16:04:03.084Z,7.10
2018-01-27T16:06:40.255Z,7.10
2018-01-27T16:09:16.309Z,7.00
2018-01-27T16:11:50.683Z,7.00
2018-01-27T16:14:25.497Z,6.90
2018-01-27T16:16:59.332Z,6.80
2018-01-27T16:19:37.845Z,6.80
2018-01-27T16:22:13.814Z,6.80
2018-01-27T16:24:46.814Z,6.80
2018-01-27T16:27:27.907Z,6.90
2018-01-27T16:30:02.907Z,6.90
2018-01-27T16:32:38.104Z,6.80
2018-01-27T16:35:18.050Z,6.80
2018-01-27T16:37:45.934Z,6.80
2018-01-27T16:40:16.373Z,6.80
2018-01-27T16:42:43.679Z,6.70
2018-01-27T16:45:10.696Z,6.70
2018-01-27T16:47:37.664Z,6.60
2018-01-27T16:50:04.542Z,6.60
2018-01-27T16:52:31.520Z,6.50
2018-01-27T16:54:58.375Z,6.40
2018-01-27T16:57:28.527Z,6.40
2018-01-27T16:59:57.236Z,6.40
2018-01-27T17:02:24.870Z,6.40
2018-01-27T17:04:51.814Z,6.40
2018-01-27T17:07:18.666Z,6.40
2018-01-27T17:09:46.684Z,6.30
2018-01-27T17:12:15.982Z,6.30
2018-01-27T17:14:42.917Z,6.30
2018-01-27T17:17:10.528Z,6.30
2018-01-27T17:19:37.451Z,6.30
2018-01-27T17:22:08.891Z,6.40
2018-01-27T17:24:35.926Z,6.30
2018-01-27T17:27:08.740Z,6.10
2018-01-27T17:29:37.064Z,6.10
2018-01-27T17:32:05.966Z,6.20
2018-01-27T17:34:33.022Z,6.30
2018-01-27T17:37:00.960Z,6.40
2018-01-27T17:39:27.891Z,6.40
2018-01-27T17:41:55.421Z,6.40
2018-01-27T17:44:26.844Z,6.40
2018-01-27T17:46:54.368Z,6.30
2018-01-27T17:49:26.060Z,6.40
2018-01-27T17:51:54.695Z,6.40
2018-01-27T17:54:22.177Z,6.40
2018-01-27T17:56:49.126Z,6.50
2018-01-27T17:59:20.127Z,6.40
2018-01-27T18:01:47.110Z,6.50
2018-01-27T18:04:13.991Z,6.50
2018-01-27T18:06:41.721Z,6.50
2018-01-27T18:09:08.635Z,6.40
2018-01-27T18:11:35.483Z,6.50
2018-01-27T18:14:02.422Z,6.50
2018-01-27T18:16:29.293Z,6.40
2018-01-27T18:18:56.236Z,6.40
2018-01-27T18:21:23.119Z,6.30
2018-01-27T18:23:50.102Z,6.40
2018-01-27T18:26:16.967Z,6.40
2018-01-27T18:28:43.820Z,6.40
2018-01-27T18:31:10.748Z,6.40
2018-01-27T18:33:37.688Z,6.30
2018-01-27T18:36:04.606Z,6.40
2018-01-27T18:38:32.286Z,6.20
2018-01-27T18:40:59.140Z,6.20
2018-01-27T18:43:26.012Z,6.30
2018-01-27T18:45:52.952Z,6.30
2018-01-27T18:48:19.875Z,6.20
2018-01-27T18:50:46.800Z,6.20
2018-01-27T18:53:14.502Z,6.20
2018-01-27T18:55:41.411Z,6.20
2018-01-27T18:58:09.716Z,6.30
2018-01-27T19:00:37.543Z,6.30
2018-01-27T19:03:05.127Z,6.30
2018-01-27T19:05:32.641Z,6.20
2018-01-27T19:07:59.639Z,6.30
2018-01-27T19:10:30.179Z,6.20
2018-01-27T19:12:57.463Z,6.20
2018-01-27T19:15:24.378Z,6.30
2018-01-27T19:17:51.338Z,6.30
2018-01-27T19:20:20.684Z,6.30
2018-01-27T19:22:48.901Z,6.40
2018-01-27T19:25:17.754Z,6.50
2018-01-27T19:27:46.031Z,6.40
2018-01-27T19:30:14.351Z,6.40
2018-01-27T19:32:41.279Z,6.40
2018-01-27T19:35:09.042Z,6.30
2018-01-27T19:37:36.894Z,6.30
2018-01-27T19:40:15.546Z,6.30
2018-01-27T19:42:54.773Z,6.30
2018-01-27T19:45:25.242Z,6.40
2018-01-27T19:48:02.766Z,6.30
2018-01-27T19:50:30.868Z,6.40
2018-01-27T19:53:00.046Z,6.40
2018-01-27T19:55:27.878Z,6.50
2018-01-27T19:57:55.492Z,6.60
2018-01-27T20:00:23.481Z,6.70
2018-01-27T20:02:51.311Z,6.70
2018-01-27T20:05:19.488Z,6.70
2018-01-27T20:07:47.282Z,6.80
2018-01-27T20:10:14.679Z,6.80
2018-01-27T20:12:42.504Z,6.80
2018-01-27T20:15:10.140Z,6.80
2018-01-27T20:17:38.308Z,6.80
2018-01-27T20:20:05.893Z,6.90
2018-01-27T20:22:34.285Z,6.80
2018-01-27T20:25:01.910Z,6.80
2018-01-27T20:27:29.699Z,6.90
2018-01-27T20:29:57.165Z,6.90
2018-01-27T20:32:24.906Z,6.80
2018-01-27T20:34:53.001Z,6.90
2018-01-27T20:37:20.259Z,6.90
2018-01-27T20:39:49.409Z,6.90
2018-01-27T20:42:18.662Z,6.90
2018-01-27T20:44:48.617Z,6.90
2018-01-27T20:47:15.759Z,6.90
2018-01-27T20:49:42.958Z,7.00
2018-01-27T20:52:22.383Z,6.90
2018-01-27T20:54:51.836Z,6.90
2018-01-27T20:57:20.783Z,6.90
2018-01-27T20:59:48.808Z,7.00
2018-01-27T21:02:15.900Z,6.90
2018-01-27T21:04:43.018Z,6.90
2018-01-27T21:07:10.360Z,6.90
2018-01-27T21:09:37.438Z,6.90
2018-01-27T21:12:04.444Z,6.90
2018-01-27T21:14:31.526Z,6.90
2018-01-27T21:16:58.545Z,6.80
2018-01-27T21:19:25.583Z,6.70
2018-01-27T21:21:53.884Z,6.60
2018-01-27T21:24:20.982Z,6.70
2018-01-27T21:26:52.513Z,6.60
2018-01-27T21:29:19.504Z,6.70
2018-01-27T21:31:47.294Z,6.70
2018-01-27T21:34:14.333Z,6.70
2018-01-27T21:36:42.479Z,6.80
2018-01-27T21:39:10.115Z,6.80
2018-01-27T21:41:37.107Z,6.80
2018-01-27T21:44:04.054Z,6.90
2018-01-27T21:46:31.063Z,6.80
2018-01-27T21:48:58.289Z,6.80
2018-01-27T21:51:25.478Z,6.70
2018-01-27T21:53:53.105Z,6.80
2018-01-27T21:56:22.486Z,6.80
2018-01-27T21:58:49.689Z,6.90
2018-01-27T22:01:16.827Z,6.90
2018-01-27T22:03:55.818Z,6.80
2018-01-27T22:06:33.066Z,6.90
2018-01-27T22:09:00.192Z,6.90
2018-01-27T22:11:28.196Z,6.90
2018-01-27T22:13:55.064Z,6.80
2018-01-27T22:16:22.153Z,6.80
2018-01-27T22:18:57.851Z,6.80
2018-01-27T22:21:25.674Z,6.80
2018-01-27T22:23:52.780Z,6.80
2018-01-27T22:26:19.879Z,6.80
2018-01-27T22:28:47.320Z,6.70
2018-01-27T22:31:22.638Z,6.70
2018-01-27T22:33:51.168Z,6.70
2018-01-27T22:36:18.193Z,6.80
2018-01-27T22:38:46.840Z,6.60
2018-01-27T22:41:14.491Z,6.60
2018-01-27T22:43:42.656Z,6.60
2018-01-27T22:46:09.684Z,6.70
2018-01-27T22:48:36.790Z,6.60
2018-01-27T22:51:03.771Z,6.70
2018-01-27T22:53:32.114Z,6.70
2018-01-27T22:55:59.178Z,6.70
2018-01-27T22:58:27.891Z,6.60
2018-01-27T23:01:05.136Z,6.70
2018-01-27T23:03:34.106Z,6.70
2018-01-27T23:06:03.252Z,6.60
2018-01-27T23:08:31.242Z,6.70
2018-01-27T23:10:58.286Z,6.70
2018-01-27T23:13:25.333Z,6.80
2018-01-27T23:15:58.776Z,6.80
2018-01-27T23:18:27.877Z,6.80
2018-01-27T23:20:56.041Z,6.70
2018-01-27T23:23:26.958Z,6.70
2018-01-27T23:25:56.685Z,6.70
2018-01-27T23:28:23.802Z,6.70
2018-01-27T23:30:52.281Z,6.80
2018-01-27T23:33:21.587Z,6.80
2018-01-27T23:35:50.719Z,6.70
2018-01-27T23:38:23.290Z,6.80
2018-01-27T23:40:53.247Z,6.80
2018-01-27T23:43:23.511Z,6.80
2018-01-27T23:45:52.839Z,6.80
2018-01-27T23:48:21.213Z,6.80
2018-01-27T23:50:50.809Z,6.80
2018-01-27T23:53:19.616Z,6.80
2018-01-27T23:55:48.148Z,6.70
2018-01-27T23:58:16.867Z,6.80
